This is the latest recevied weather packets stored in our database for station/object N0NPO. If no packets are shown the sender has not sent any weather packets the latest 10 day(s).
| Time | Temp. | Humidity | Pressure | Rain* | Wind** | Luminosity | Snow |
|---|---|---|---|---|---|---|---|
| 1778245651 | 7.22° C | 1% | 1013.1 hPa | 0 mm | - | 133 W/m² | - |
| 1778245349 | 7.22° C | 1% | 1012.9 hPa | 0 mm | - | 133 W/m² | - |
| 1778245045 | 6.67° C | 1% | 1012.9 hPa | 0 mm | - | 119 W/m² | - |
| 1778244741 | 6.67° C | 1% | 1012.7 hPa | 0 mm | - | 111 W/m² | - |
| 1778244439 | 5.56° C | 1% | 1012.4 hPa | 0 mm | - | 77 W/m² | - |
| 1778244136 | 5.56° C | 1% | 1012.4 hPa | 0 mm | - | 81 W/m² | - |
| 1778243835 | 5° C | 1% | 1012.2 hPa | 0 mm | - | 72 W/m² | - |
| 1778243532 | 4.44° C | 1% | 1012.4 hPa | 0 mm | - | 43 W/m² | - |
| 1778243228 | 4.44° C | 1% | 1012.2 hPa | 0 mm | - | 38 W/m² | - |
| 1778242925 | 5° C | 1% | 1012.4 hPa | 0 mm | - | 38 W/m² | - |
| 1778242623 | 5.56° C | 1% | 1012.2 hPa | 0 mm | - | 38 W/m² | - |
| 1778242321 | 5° C | 1% | 1012.2 hPa | 0 mm | - | 33 W/m² | - |
| 1778242018 | 5.56° C | 1% | 1012.1 hPa | 0 mm | - | 31 W/m² | - |
| 1778241716 | 5.56° C | 1% | 1011.8 hPa | 0 mm | - | 28 W/m² | - |
| 1778241414 | 5° C | 1% | 1012.1 hPa | 0 mm | - | 26 W/m² | - |
| 1778241110 | 5.56° C | 1% | 1012.1 hPa | 0 mm | - | 22 W/m² | - |
| 1778240807 | 5° C | 1% | 1012.1 hPa | 0 mm | - | 16 W/m² | - |
| 1778240504 | 5° C | 1% | 1011.8 hPa | 0 mm | - | 10 W/m² | - |
| 1778240201 | 5° C | 1% | 1012 hPa | 0 mm | - | 7 W/m² | - |
| 1778239899 | 5° C | 1% | 1012 hPa | 0 mm | - | 4 W/m² | - |
| 1778239589 | 5.56° C | 1% | 1011.9 hPa | 0 mm | - | 2 W/m² | - |
| 1778239286 | 5.56° C | 1% | 1012 hPa | 0 mm | - | 0 W/m² | - |
| 1778238983 | 6.11° C | 1% | 1012 hPa | 0 mm | - | 0 W/m² | - |
| 1778238680 | 6.67° C | 1% | 1011.9 hPa | 0 mm | - | 0 W/m² | - |
| 1778238378 | 6.11° C | 1% | 1011.9 hPa | 0 mm | - | 0 W/m² | - |
* Rain latest hour (hover to see other rain measurements)
** Current wind speed in m/s (hover to see current wind gust speed)